Time;durP1;ratioP1;P1;durP2;ratioP2;P2;SDS_P1;SDS_P2;PMS_P1;PMS_P2;Temp;Humidity;BMP_temperature;BMP_pressure;BME280_temperature;BME280_humidity;BME280_pressure;Samples;Min_cycle;Max_cycle;Signal;HPM_P1;HPM_P2
2022/08/22 00:02:00;;;;;;;79.78;53.63;;;;;;;20.03;37.46;100634.25;5038151;28;20059;-83
2022/08/22 00:04:42;;;;;;;81.57;54.00;;;;;;;20.06;37.39;100638.59;5020094;28;20076;-82
2022/08/22 00:07:13;;;;;;;82.10;54.13;;;;;;;20.09;37.39;100641.22;5039824;28;20052;-81
2022/08/22 00:09:51;;;;;;;80.38;54.10;;;;;;;20.05;37.21;100636.88;5035740;28;20084;-84
2022/08/22 00:12:28;;;;;;;75.80;50.83;;;;;;;20.11;37.20;100647.34;5035235;28;20512;-83
2022/08/22 00:15:08;;;;;;;77.10;53.67;;;;;;;20.14;37.15;100638.44;5035391;28;20410;-83
2022/08/22 00:17:59;;;;;;;;;;;;;;;19.90;37.49;100639.88;5035395;28;20080;-85
2022/08/22 00:20:48;;;;;;;76.30;52.17;;;;;;;20.07;37.48;100639.47;5034967;28;19979;-83
2022/08/22 00:23:27;;;;;;;78.50;51.58;;;;;;;20.13;37.46;100640.19;5034866;28;20501;-82
2022/08/22 00:26:02;;;;;;;82.53;51.50;;;;;;;20.16;37.40;100641.94;5035148;28;20057;-83
2022/08/22 00:28:48;;;;;;;80.90;53.20;;;;;;;20.18;37.22;100643.63;5035462;28;20092;-84
2022/08/22 00:31:35;;;;;;;77.00;52.15;;;;;;;20.18;37.35;100646.28;5035248;28;20148;-81
2022/08/22 00:34:11;;;;;;;81.47;53.95;;;;;;;20.22;37.41;100647.97;5045046;28;20104;-80
2022/08/22 00:36:46;;;;;;;79.10;53.95;;;;;;;20.05;37.50;100619.19;5043898;28;20056;-82
2022/08/22 00:39:28;;;;;;;83.53;54.92;;;;;;;20.02;37.54;100618.38;5041173;28;20069;-81
2022/08/22 00:42:25;;;;;;;80.95;55.50;;;;;;;20.15;37.52;100641.03;5037158;28;20056;-83
2022/08/22 00:45:13;;;;;;;80.38;54.80;;;;;;;20.13;37.75;100644.63;5035364;28;20576;-81
2022/08/22 00:48:17;;;;;;;82.15;53.88;;;;;;;20.12;37.60;100638.47;5034566;28;20049;-85
2022/08/22 00:51:00;;;;;;;76.50;53.25;;;;;;;20.15;37.91;100649.00;5034340;28;20571;-82
2022/08/22 00:53:42;;;;;;;80.15;54.28;;;;;;;20.12;37.76;100634.94;5034383;28;20057;-83
2022/08/22 00:56:18;;;;;;;82.20;55.47;;;;;;;20.09;37.73;100646.50;5033790;28;20113;-84
2022/08/22 00:59:26;;;;;;;81.40;55.30;;;;;;;19.99;37.90;100626.41;5034133;28;20076;-83
2022/08/22 01:02:03;;;;;;;77.78;54.15;;;;;;;20.06;38.02;100641.25;5026828;28;20050;-84
2022/08/22 01:04:51;;;;;;;77.45;54.15;;;;;;;20.01;38.03;100627.25;5034000;28;20063;-82
2022/08/22 01:07:49;;;;;;;77.53;54.35;;;;;;;20.04;38.19;100635.13;5033977;28;20088;-85
2022/08/22 01:10:26;;;;;;;81.57;54.80;;;;;;;20.04;38.23;100641.28;5033302;28;20057;-82
2022/08/22 01:13:19;;;;;;;78.50;53.70;;;;;;;19.97;38.29;100641.47;5041460;28;20053;-81
2022/08/22 01:15:49;;;;;;;79.40;53.90;;;;;;;20.03;38.34;100636.91;5040060;28;20144;-82
2022/08/22 01:18:28;;;;;;;87.90;56.30;;;;;;;20.03;38.31;100644.00;5035648;28;20049;-83
2022/08/22 01:21:19;;;;;;;83.83;57.03;;;;;;;19.95;38.63;100638.84;5033917;28;20057;-82
2022/08/22 01:24:08;;;;;;;84.47;56.47;;;;;;;19.97;38.71;100647.66;5033721;28;20054;-82
2022/08/22 01:27:13;;;;;;;78.53;55.08;;;;;;;19.94;38.35;100636.22;5033869;28;20079;-85
2022/08/22 01:29:52;;;;;;;85.90;55.88;;;;;;;19.97;38.59;100644.13;5033872;28;20055;-80
2022/08/22 01:32:46;;;;;;;82.10;56.72;;;;;;;19.96;38.56;100640.63;5033669;28;20152;-82
2022/08/22 01:35:33;;;;;;;81.45;56.53;;;;;;;19.93;38.61;100645.97;5033316;28;20053;-81
2022/08/22 01:38:12;;;;;;;80.60;57.78;;;;;;;19.93;38.64;100645.09;5033919;28;20050;-82
2022/08/22 01:41:02;;;;;;;83.30;58.55;;;;;;;19.79;38.93;100618.94;5034068;28;20092;-83
2022/08/22 01:43:39;;;;;;;83.90;58.78;;;;;;;19.93;38.78;100643.31;5033639;28;20060;-83
2022/08/22 01:46:55;;;;;;;93.07;60.78;;;;;;;19.93;38.84;100643.31;5033409;28;20498;-81
2022/08/22 01:49:43;;;;;;;84.30;58.90;;;;;;;19.90;39.17;100653.16;5033290;28;20489;-82
2022/08/22 01:52:30;;;;;;;84.07;57.15;;;;;;;19.92;39.02;100649.53;5033223;28;20049;-82
2022/08/22 01:55:08;;;;;;;86.85;58.33;;;;;;;20.00;38.92;100652.00;5032834;28;20069;-83
2022/08/22 01:57:54;;;;;;;90.60;61.20;;;;;;;19.88;38.96;100628.44;5033540;28;20049;-83
2022/08/22 02:00:24;;;;;;;87.88;61.47;;;;;;;19.99;39.09;100644.97;5032104;28;20069;-80
2022/08/22 02:03:29;;;;;;;90.78;62.25;;;;;;;19.97;39.01;100647.66;5032711;28;20053;-81
2022/08/22 02:06:14;;;;;;;94.10;61.15;;;;;;;19.94;39.12;100646.84;5031532;28;20053;-80
2022/08/22 02:09:26;;;;;;;88.47;62.03;;;;;;;19.95;39.24;100657.41;5033041;28;20100;-80
2022/08/22 02:12:21;;;;;;;91.45;62.55;;;;;;;19.99;39.40;100659.09;4991647;28;20047;-82
2022/08/22 02:14:58;;;;;;;94.70;63.35;;;;;;;19.92;39.39;100633.63;4972433;28;20060;-83
2022/08/22 02:17:31;;;;;;;95.72;66.75;;;;;;;19.99;39.35;100643.19;5024106;28;20057;-81
2022/08/22 02:20:09;;;;;;;98.35;65.35;;;;;;;19.91;39.61;100636.31;5033351;28;20108;-83
2022/08/22 02:22:50;;;;;;;92.43;67.10;;;;;;;19.86;39.62;100644.38;5035903;28;20045;-84
2022/08/22 02:25:25;;;;;;;96.25;69.65;;;;;;;19.88;39.34;100650.53;5036899;28;20100;-83
2022/08/22 02:28:05;;;;;;;94.82;68.38;;;;;;;19.82;39.52;100646.22;5037428;28;20057;-83
2022/08/22 02:30:44;;;;;;;101.90;70.00;;;;;;;19.96;39.56;100656.53;5037383;28;20061;-82
2022/08/22 02:33:24;;;;;;;106.93;71.83;;;;;;;19.96;39.80;100656.53;5036886;28;20053;-83
2022/08/22 02:35:58;;;;;;;;;;;;;;;19.70;39.79;100654.44;5035808;28;20472;-81
2022/08/22 02:38:47;;;;;;;103.68;72.70;;;;;;;19.76;39.90;100651.66;5037044;28;19929;-82
2022/08/22 02:41:23;;;;;;;102.85;70.82;;;;;;;19.86;39.71;100649.69;5036598;28;20085;-82
2022/08/22 02:44:11;;;;;;;111.20;74.82;;;;;;;19.82;39.97;100648.00;5036842;28;20049;-81
2022/08/22 02:46:38;;;;;;;111.35;77.65;;;;;;;19.76;39.98;100640.19;5036464;28;20556;-82
2022/08/22 02:49:17;;;;;;;108.80;76.80;;;;;;;19.71;40.32;100642.94;5035969;28;20147;-82
2022/08/22 02:52:01;;;;;;;121.43;79.93;;;;;;;19.42;40.27;100612.63;5036027;28;20501;-81
2022/08/22 02:54:42;;;;;;;119.07;82.60;;;;;;;19.53;40.50;100641.53;5036489;28;20076;-82
2022/08/22 02:57:26;;;;;;;130.32;86.93;;;;;;;19.56;40.49;100654.72;5036245;28;20046;-80
2022/08/22 03:00:13;;;;;;;124.38;86.68;;;;;;;19.50;40.76;100635.41;5036406;28;20145;-81
2022/08/22 03:02:58;;;;;;;124.03;87.97;;;;;;;19.64;40.80;100659.84;5035656;28;20092;-82
2022/08/22 03:05:48;;;;;;;125.30;86.20;;;;;;;19.67;40.80;100659.78;5036135;28;20049;-83
2022/08/22 03:08:21;;;;;;;;;;;;;;;19.43;40.78;100658.53;5035527;28;20061;-82
2022/08/22 03:11:26;;;;;;;132.57;89.18;;;;;;;19.59;40.75;100672.31;5036315;28;19928;-88
2022/08/22 03:14:12;;;;;;;128.02;91.18;;;;;;;19.64;40.97;100657.22;5036467;28;20061;-83
2022/08/22 03:17:13;;;;;;;131.48;93.05;;;;;;;19.59;41.06;100657.28;5036759;28;20088;-83
2022/08/22 03:19:47;;;;;;;138.13;96.82;;;;;;;19.61;41.23;100665.19;5022264;28;20072;-80
2022/08/22 03:22:36;;;;;;;136.82;96.90;;;;;;;19.63;41.18;100653.66;5035971;28;20460;-79
2022/08/22 03:25:21;;;;;;;142.30;96.77;;;;;;;19.66;41.10;100650.09;5036163;28;20101;-81
2022/08/22 03:28:00;;;;;;;145.57;101.45;;;;;;;19.79;40.77;100662.19;5036073;28;20144;-80
2022/08/22 03:30:44;;;;;;;149.02;101.93;;;;;;;19.79;40.92;100680.75;5035528;28;20053;-83
2022/08/22 03:33:20;;;;;;;154.43;105.68;;;;;;;19.81;40.86;100673.66;5034729;28;20055;-81
2022/08/22 03:35:47;;;;;;;153.98;109.80;;;;;;;19.77;40.98;100671.97;5036252;28;20080;-81
2022/08/22 03:38:32;;;;;;;154.68;109.60;;;;;;;19.79;41.00;100669.28;5036288;28;20080;-80
2022/08/22 03:41:02;;;;;;;168.27;111.75;;;;;;;19.79;41.12;100671.94;5041582;28;20058;-83
2022/08/22 03:43:47;;;;;;;165.23;111.00;;;;;;;19.79;41.19;100675.47;5045110;28;20152;-83
2022/08/22 03:46:23;;;;;;;164.98;112.90;;;;;;;19.83;41.22;100666.53;5040626;28;20061;-85
2022/08/22 03:49:05;;;;;;;174.82;118.18;;;;;;;19.83;41.16;100674.50;5035828;28;20053;-81
2022/08/22 03:51:32;;;;;;;167.13;117.72;;;;;;;19.79;41.64;100680.75;5034653;28;20092;-82
2022/08/22 03:54:14;;;;;;;177.90;122.93;;;;;;;19.76;41.47;100669.34;5035686;28;20085;-82
2022/08/22 03:57:23;;;;;;;181.30;122.35;;;;;;;19.52;41.54;100634.47;5035157;28;20049;-82
2022/08/22 04:00:28;;;;;;;190.80;128.40;;;;;;;19.73;41.49;100667.63;5034962;28;20060;-84
2022/08/22 04:03:15;;;;;;;194.98;135.13;;;;;;;19.83;41.70;100669.19;5013539;28;20063;-86
2022/08/22 04:06:07;;;;;;;211.13;135.38;;;;;;;19.85;41.66;100679.72;5034834;28;20060;-85
2022/08/22 04:09:27;;;;;;;210.95;142.68;;;;;;;19.83;41.63;100678.88;5035699;28;20061;-85
2022/08/22 04:12:16;;;;;;;215.18;141.77;;;;;;;19.91;41.69;100673.44;4973901;28;20058;-85
2022/08/22 04:15:07;;;;;;;221.18;146.65;;;;;;;19.99;41.39;100676.78;4972445;28;20070;-83
2022/08/22 04:17:52;;;;;;;221.85;147.93;;;;;;;20.21;41.19;100688.63;5036872;28;20030;-84
2022/08/22 04:20:39;;;;;;;219.57;150.82;;;;;;;20.42;41.00;100686.41;5051162;28;20059;-82
2022/08/22 04:23:25;;;;;;;228.55;152.35;;;;;;;20.58;40.67;100679.81;5055203;28;20053;-80
2022/08/22 04:25:58;;;;;;;226.52;152.70;;;;;;;20.73;40.21;100667.94;5055440;28;20045;-82
2022/08/22 04:28:46;;;;;;;226.52;159.35;;;;;;;20.96;39.87;100683.28;5048778;28;20088;-80
2022/08/22 04:31:19;;;;;;;243.60;163.82;;;;;;;21.03;40.07;100676.00;5046412;28;20049;-80
2022/08/22 04:33:53;;;;;;;239.57;165.05;;;;;;;21.04;39.90;100653.88;5034404;28;20046;-82
2022/08/22 04:36:33;;;;;;;238.10;166.98;;;;;;;21.32;39.65;100677.88;5033716;28;20053;-82
2022/08/22 04:39:09;;;;;;;243.93;174.98;;;;;;;21.35;39.45;100683.09;5034850;28;20099;-80
2022/08/22 04:41:49;;;;;;;248.35;174.50;;;;;;;21.48;39.50;100673.88;5034756;28;20135;-82
2022/08/22 04:44:26;;;;;;;247.95;172.80;;;;;;;21.83;38.87;100673.75;5035694;28;20505;-84
2022/08/22 04:47:11;;;;;;;255.20;180.80;;;;;;;22.35;38.02;100673.94;5037184;28;20103;-84
2022/08/22 04:49:55;;;;;;;247.85;173.43;;;;;;;22.78;37.18;100685.81;5033796;28;20144;-82
2022/08/22 04:52:41;;;;;;;252.40;181.88;;;;;;;23.12;36.90;100679.38;5033910;28;20513;-83
2022/08/22 04:55:31;;;;;;;242.77;177.38;;;;;;;23.10;36.61;100674.09;5034192;28;20057;-81
2022/08/22 04:58:22;;;;;;;239.68;174.90;;;;;;;22.82;37.23;100675.03;5034061;28;20091;-82
2022/08/22 05:01:11;;;;;;;248.63;177.48;;;;;;;22.94;36.78;100659.56;5033840;28;20068;-82
2022/08/22 05:03:49;;;;;;;250.98;179.38;;;;;;;23.09;36.90;100669.69;5033646;28;20059;-83
2022/08/22 05:06:21;;;;;;;241.38;172.63;;;;;;;23.15;36.53;100681.94;5032160;28;20503;-82
2022/08/22 05:08:49;;;;;;;238.60;175.02;;;;;;;23.19;36.96;100675.53;5033608;28;20525;-81
2022/08/22 05:11:22;;;;;;;241.18;173.95;;;;;;;23.08;37.03;100667.94;5033244;28;20061;-83
2022/08/22 05:13:56;;;;;;;238.60;172.32;;;;;;;22.78;37.02;100637.88;5033775;28;20497;-82
2022/08/22 05:16:30;;;;;;;239.15;172.85;;;;;;;22.72;37.34;100648.78;5033493;28;20055;-78
2022/08/22 05:19:06;;;;;;;245.25;172.70;;;;;;;22.76;37.48;100653.94;5033472;28;20141;-76
2022/08/22 05:21:37;;;;;;;229.50;165.30;;;;;;;22.80;37.33;100660.00;5032337;28;20065;-80
2022/08/22 05:24:04;;;;;;;226.43;164.05;;;;;;;23.03;37.26;100667.25;5033454;28;20053;-77
2022/08/22 05:26:56;;;;;;;245.35;177.68;;;;;;;23.07;37.24;100674.19;5033222;28;20049;-81
2022/08/22 05:29:29;;;;;;;238.40;170.73;;;;;;;23.20;37.16;100666.63;5028533;28;20422;-78
2022/08/22 05:32:04;;;;;;;254.73;184.40;;;;;;;23.46;36.70;100668.34;5033338;28;20053;-77
2022/08/22 05:34:37;;;;;;;246.40;178.60;;;;;;;23.83;36.32;100678.53;5033077;28;20053;-76
2022/08/22 05:37:10;;;;;;;246.02;178.27;;;;;;;24.11;35.88;100669.41;5033268;28;20053;-79
2022/08/22 05:39:45;;;;;;;246.30;182.60;;;;;;;24.01;35.77;100636.91;5033923;28;20057;-79
2022/08/22 05:42:24;;;;;;;238.13;176.52;;;;;;;24.12;36.04;100673.84;5033049;28;20049;-78
2022/08/22 05:44:53;;;;;;;239.95;173.82;;;;;;;24.38;35.61;100669.25;5033170;28;20064;-80
2022/08/22 05:47:26;;;;;;;233.43;174.77;;;;;;;24.47;35.20;100658.19;5032226;28;20089;-78
2022/08/22 05:50:01;;;;;;;238.52;172.20;;;;;;;24.61;35.09;100666.53;5033086;28;20049;-80
2022/08/22 05:52:37;;;;;;;239.38;168.98;;;;;;;25.10;34.59;100664.41;5033163;28;20053;-79
2022/08/22 05:55:25;;;;;;;228.73;172.43;;;;;;;25.48;34.03;100667.16;5031848;28;20132;-79
2022/08/22 05:58:15;;;;;;;227.57;170.65;;;;;;;25.73;33.86;100672.25;5030655;28;20064;-81
2022/08/22 06:00:47;;;;;;;227.05;164.98;;;;;;;26.21;32.96;100677.19;5031522;28;20050;-82
2022/08/22 06:03:29;;;;;;;221.23;159.50;;;;;;;26.42;32.43;100669.91;5032902;28;20072;-80
2022/08/22 06:06:02;;;;;;;223.07;157.23;;;;;;;26.47;32.42;100663.34;5032950;28;20061;-79
2022/08/22 06:08:38;;;;;;;223.07;159.95;;;;;;;26.19;32.78;100653.16;5032784;28;20091;-80
2022/08/22 06:11:14;;;;;;;218.00;159.13;;;;;;;25.95;33.29;100649.84;5032756;28;20079;-79
2022/08/22 06:13:49;;;;;;;200.45;146.10;;;;;;;26.04;32.98;100686.03;5033254;28;20061;-80
2022/08/22 06:16:35;;;;;;;203.30;149.13;;;;;;;26.15;32.93;100670.31;5035178;28;20144;-78
2022/08/22 06:19:04;;;;;;;201.15;140.82;;;;;;;26.50;32.39;100678.41;5033641;28;20053;-80
2022/08/22 06:21:49;;;;;;;177.68;130.38;;;;;;;26.73;31.40;100664.75;5032348;28;20428;-80
2022/08/22 06:24:23;;;;;;;188.27;135.18;;;;;;;26.93;31.45;100649.44;5033684;28;20083;-80
2022/08/22 06:26:55;;;;;;;190.15;137.70;;;;;;;26.91;31.51;100654.00;5034514;28;20052;-79
2022/08/22 06:29:47;;;;;;;190.65;137.98;;;;;;;27.01;31.74;100678.53;5034667;28;20113;-80
2022/08/22 06:32:21;;;;;;;193.02;140.52;;;;;;;27.05;31.52;100672.06;5033671;28;20057;-79
2022/08/22 06:35:18;;;;;;;177.73;126.30;;;;;;;26.71;31.31;100688.06;5034241;28;20100;-79
2022/08/22 06:37:48;;;;;;;173.93;126.00;;;;;;;26.82;31.11;100668.75;5033898;28;20588;-79
2022/08/22 06:40:17;;;;;;;155.30;112.50;;;;;;;27.10;30.20;100681.63;5033054;28;20540;-80
2022/08/22 06:42:50;;;;;;;166.05;120.07;;;;;;;27.06;30.36;100672.00;5029270;28;20069;-79
2022/08/22 06:45:31;;;;;;;169.05;121.47;;;;;;;27.16;30.43;100670.53;5031325;28;20524;-80
2022/08/22 06:48:15;;;;;;;171.02;126.38;;;;;;;27.18;30.55;100659.75;5033452;28;20080;-79
2022/08/22 06:50:47;;;;;;;167.88;125.55;;;;;;;27.20;30.70;100641.75;5032469;28;20049;-79
2022/08/22 06:53:20;;;;;;;176.10;130.80;;;;;;;27.21;30.06;100639.94;5033073;28;20068;-79
2022/08/22 06:55:53;;;;;;;170.45;122.43;;;;;;;27.10;30.51;100676.25;5032048;28;20088;-78
2022/08/22 06:58:31;;;;;;;174.77;127.85;;;;;;;27.25;30.44;100668.34;5028344;28;20108;-79
2022/08/22 07:01:10;;;;;;;164.55;119.47;;;;;;;27.37;30.15;100670.38;5033535;28;20068;-79
2022/08/22 07:03:46;;;;;;;169.37;123.93;;;;;;;27.43;30.02;100670.06;5033057;28;20056;-80
2022/08/22 07:06:20;;;;;;;165.25;118.90;;;;;;;27.34;30.34;100674.09;5032789;28;20059;-83
2022/08/22 07:08:52;;;;;;;164.50;116.25;;;;;;;27.10;30.52;100648.56;5035054;28;20417;-80
2022/08/22 07:11:27;;;;;;;165.95;119.80;;;;;;;27.32;30.45;100659.06;5037198;28;20053;-80
2022/08/22 07:14:05;;;;;;;157.95;118.28;;;;;;;27.51;30.25;100665.16;5037669;28;20103;-80
2022/08/22 07:16:55;;;;;;;149.90;112.78;;;;;;;27.41;30.07;100660.38;5036408;28;20444;-79
2022/08/22 07:19:27;;;;;;;144.25;110.70;;;;;;;27.26;30.26;100679.00;5035269;28;20053;-80
2022/08/22 07:21:56;;;;;;;146.90;112.07;;;;;;;26.93;30.85;100676.25;5036697;28;20460;-81
2022/08/22 07:24:28;;;;;;;145.18;110.65;;;;;;;26.82;30.97;100678.63;5035110;28;20115;-80
2022/08/22 07:27:07;;;;;;;150.50;110.63;;;;;;;26.98;30.90;100687.59;5035735;28;20049;-81
2022/08/22 07:29:55;;;;;;;148.95;108.78;;;;;;;26.98;31.05;100679.56;5035632;28;20064;-82
2022/08/22 07:32:50;;;;;;;155.73;111.82;;;;;;;26.98;31.30;100678.72;5035275;28;20517;-80
2022/08/22 07:35:40;;;;;;;147.65;113.72;;;;;;;27.45;30.66;100667.28;5035552;28;20510;-82
2022/08/22 07:38:35;;;;;;;159.57;111.88;;;;;;;27.81;30.21;100683.16;5034494;28;20121;-80
2022/08/22 07:41:16;;;;;;;150.43;110.68;;;;;;;27.87;29.89;100680.19;5038470;28;20107;-77
2022/08/22 07:43:52;;;;;;;154.80;108.72;;;;;;;27.99;30.12;100678.66;5041255;28;20057;-78
2022/08/22 07:46:32;;;;;;;143.60;102.88;;;;;;;28.11;29.43;100677.94;5040705;28;20497;-79
2022/08/22 07:49:23;;;;;;;141.00;104.20;;;;;;;28.12;29.81;100677.00;5039176;28;20060;-77
2022/08/22 07:52:01;;;;;;;142.10;103.40;;;;;;;28.18;29.58;100681.16;5036026;28;20053;-80
2022/08/22 07:54:51;;;;;;;135.90;99.43;;;;;;;28.12;29.43;100678.81;5037852;28;20406;-82
2022/08/22 07:57:30;;;;;;;129.13;94.75;;;;;;;28.25;29.19;100673.59;5040644;28;20076;-80
2022/08/22 07:59:58;;;;;;;;;;;;;;;28.07;29.88;100678.19;5040244;28;20080;-80
2022/08/22 08:02:27;;;;;;;131.55;97.18;;;;;;;28.19;29.18;100678.34;5036652;28;19929;-79
2022/08/22 08:04:59;;;;;;;127.97;97.03;;;;;;;28.31;29.13;100679.50;5033502;28;20140;-79
2022/08/22 08:07:29;;;;;;;124.05;92.65;;;;;;;28.43;29.07;100666.28;5034921;28;20091;-80
2022/08/22 08:10:05;;;;;;;126.13;92.10;;;;;;;28.27;29.54;100671.69;5037021;28;20088;-78
2022/08/22 08:12:52;;;;;;;126.75;97.45;;;;;;;28.26;29.71;100678.88;5034229;28;20072;-79
2022/08/22 08:15:32;;;;;;;131.52;94.32;;;;;;;28.41;29.40;100668.19;5034064;28;20057;-80
2022/08/22 08:18:04;;;;;;;135.25;96.55;;;;;;;28.46;29.54;100675.06;5035308;28;20057;-84
2022/08/22 08:20:35;;;;;;;112.80;85.53;;;;;;;28.27;29.08;100634.97;5033315;28;20398;-84
2022/08/22 08:23:05;;;;;;;105.57;82.60;;;;;;;28.39;28.82;100658.44;5031271;28;20045;-80
2022/08/22 08:25:47;;;;;;;110.80;81.40;;;;;;;28.44;28.70;100657.25;5035287;28;20053;-79
2022/08/22 08:28:33;;;;;;;119.10;85.13;;;;;;;28.56;28.97;100668.19;5033296;28;20536;-79
2022/08/22 08:31:16;;;;;;;116.55;88.05;;;;;;;28.50;28.95;100668.56;5035157;28;20069;-78
2022/08/22 08:33:47;;;;;;;124.22;89.38;;;;;;;28.46;28.77;100672.38;5035979;28;20460;-78
2022/08/22 08:36:38;;;;;;;123.35;91.90;;;;;;;28.33;28.98;100672.22;5045628;28;20056;-81
2022/08/22 08:39:14;;;;;;;122.70;89.43;;;;;;;28.32;29.20;100673.16;5042704;28;20498;-81
2022/08/22 08:41:54;;;;;;;120.00;88.95;;;;;;;28.42;29.46;100672.63;5040396;28;20153;-82
2022/08/22 08:44:32;;;;;;;121.85;88.10;;;;;;;28.54;29.28;100666.56;5034459;28;20064;-81
2022/08/22 08:47:28;;;;;;;119.47;86.55;;;;;;;28.80;28.98;100678.44;5034629;28;20140;-79
2022/08/22 08:50:28;;;;;;;111.18;83.35;;;;;;;28.90;28.60;100660.81;5034361;28;20053;-82
2022/08/22 08:53:19;;;;;;;118.78;87.85;;;;;;;29.00;28.79;100655.75;5002176;28;20133;-84
2022/08/22 08:56:02;;;;;;;120.95;87.88;;;;;;;29.25;28.62;100659.63;5034618;28;20088;-83
2022/08/22 08:58:53;;;;;;;120.82;86.57;;;;;;;29.29;28.42;100674.63;5034094;28;20126;-82
2022/08/22 09:01:59;;;;;;;105.50;79.75;;;;;;;29.09;28.50;100665.97;5033801;28;20140;-83
2022/08/22 09:04:38;;;;;;;101.20;73.85;;;;;;;29.06;27.92;100660.75;5032755;28;20183;-81
2022/08/22 09:07:20;;;;;;;95.00;73.50;;;;;;;29.21;28.18;100675.09;5034479;28;20057;-81
2022/08/22 09:10:03;;;;;;;106.20;75.50;;;;;;;29.39;28.26;100665.03;5034837;28;20049;-85
2022/08/22 09:12:31;;;;;;;97.45;70.57;;;;;;;29.38;28.25;100665.97;5035911;28;20060;-81
2022/08/22 09:15:09;;;;;;;91.95;70.90;;;;;;;29.42;28.24;100674.72;5045797;28;20076;-83
2022/08/22 09:18:09;;;;;;;97.82;73.45;;;;;;;29.53;27.99;100658.75;5040595;28;20057;-80
2022/08/22 09:20:50;;;;;;;92.85;72.82;;;;;;;29.65;28.00;100675.97;5025397;28;20524;-77
2022/08/22 09:23:46;;;;;;;97.57;72.18;;;;;;;29.61;27.74;100661.84;5033888;28;20053;-78
2022/08/22 09:26:37;;;;;;;102.60;73.90;;;;;;;29.76;27.90;100668.09;5033089;28;20087;-77
2022/08/22 09:29:44;;;;;;;104.65;73.75;;;;;;;29.88;27.54;100663.75;5034060;28;20516;-79
2022/08/22 09:32:32;;;;;;;98.75;74.07;;;;;;;29.90;28.02;100662.69;5032855;28;20049;-79
2022/08/22 09:35:07;;;;;;;99.95;71.57;;;;;;;29.58;27.84;100643.19;5034200;28;20461;-80
2022/08/22 09:37:55;;;;;;;103.05;72.05;;;;;;;29.75;28.09;100669.03;5032768;28;20053;-80
2022/08/22 09:40:27;;;;;;;95.28;71.15;;;;;;;29.95;27.84;100676.72;5013853;28;20528;-82
2022/08/22 09:43:05;;;;;;;100.10;72.53;;;;;;;29.97;27.60;100664.03;5024124;28;20046;-81
2022/08/22 09:45:36;;;;;;;97.53;69.93;;;;;;;29.96;27.68;100664.97;5032539;28;20057;-82
2022/08/22 09:48:12;;;;;;;95.32;72.85;;;;;;;30.23;27.47;100671.38;5032970;28;20452;-81
2022/08/22 09:50:52;;;;;;;82.40;60.90;;;;;;;30.30;27.01;100635.84;5032589;28;20111;-81
2022/08/22 09:53:57;;;;;;;80.05;58.20;;;;;;;30.70;26.56;100668.19;5032315;28;20140;-80
2022/08/22 09:56:50;;;;;;;81.72;57.92;;;;;;;30.57;26.45;100673.56;5031495;28;20056;-78
2022/08/22 09:59:49;;;;;;;78.03;56.92;;;;;;;30.51;26.99;100668.56;5031401;28;20088;-79
2022/08/22 10:02:29;;;;;;;78.47;57.90;;;;;;;30.54;26.82;100665.66;5032938;28;20068;-81
2022/08/22 10:05:06;;;;;;;79.25;58.03;;;;;;;30.75;26.77;100675.97;5032688;28;20057;-81
2022/08/22 10:07:48;;;;;;;75.03;54.65;;;;;;;30.89;26.22;100675.03;5033093;28;20088;-80
2022/08/22 10:10:38;;;;;;;78.85;55.00;;;;;;;30.96;26.00;100661.03;5033506;28;20051;-78
2022/08/22 10:13:37;;;;;;;75.70;54.40;;;;;;;31.02;26.13;100662.44;5032732;28;20077;-81
2022/08/22 10:16:10;;;;;;;77.78;58.25;;;;;;;31.08;26.64;100653.91;5031563;28;20050;-80
2022/08/22 10:18:59;;;;;;;76.43;55.05;;;;;;;31.09;26.39;100647.56;5031746;28;20103;-79
2022/08/22 10:21:38;;;;;;;71.13;52.53;;;;;;;31.11;25.80;100634.81;5032780;28;20085;-80
2022/08/22 10:24:32;;;;;;;74.43;55.67;;;;;;;31.21;25.87;100657.50;5015524;28;20049;-79
2022/08/22 10:27:18;;;;;;;78.70;56.20;;;;;;;31.03;25.99;100665.03;5032347;28;20049;-81
2022/08/22 10:30:10;;;;;;;78.63;55.17;;;;;;;31.01;26.49;100661.56;5031281;28;20100;-79
2022/08/22 10:33:09;;;;;;;71.22;51.95;;;;;;;30.93;26.58;100654.97;5030069;28;20065;-79
2022/08/22 10:35:53;;;;;;;65.75;50.72;;;;;;;30.86;26.85;100659.03;5032342;28;20099;-79
2022/08/22 10:38:27;;;;;;;67.40;50.05;;;;;;;30.92;26.29;100632.53;5032279;28;20191;-80
2022/08/22 10:41:27;;;;;;;64.03;46.85;;;;;;;31.02;26.46;100641.72;5032179;28;20084;-79
2022/08/22 10:44:07;;;;;;;62.83;45.15;;;;;;;30.99;26.50;100658.09;5026683;28;20081;-80
2022/08/22 10:46:53;;;;;;;52.65;37.28;;;;;;;31.13;26.16;100664.41;5036109;28;20147;-80
2022/08/22 10:49:28;;;;;;;47.55;35.03;;;;;;;31.27;25.78;100660.72;5036577;28;20100;-80
2022/08/22 10:52:02;;;;;;;52.83;36.95;;;;;;;31.40;25.61;100646.22;5035333;28;20053;-80
2022/08/22 10:54:47;;;;;;;60.17;39.63;;;;;;;31.60;25.54;100647.53;5036181;28;20049;-80
2022/08/22 10:57:35;;;;;;;59.45;41.75;;;;;;;31.71;25.91;100652.16;5036580;28;20053;-80
2022/08/22 11:00:30;;;;;;;53.28;35.78;;;;;;;31.54;25.79;100647.97;5035034;28;20455;-80
2022/08/22 11:03:41;;;;;;;48.30;32.95;;;;;;;31.32;25.94;100659.44;5036874;28;20057;-81
2022/08/22 11:06:16;;;;;;;43.85;28.50;;;;;;;31.13;25.80;100637.41;5034571;28;20099;-79
2022/08/22 11:08:53;;;;;;;36.22;23.42;;;;;;;31.20;25.52;100638.69;5035818;28;20073;-80
2022/08/22 11:11:31;;;;;;;32.30;19.27;;;;;;;31.28;24.86;100644.44;5035779;28;20048;-80
2022/08/22 11:14:17;;;;;;;;;;;;;;;31.05;25.74;100647.88;5036600;28;20061;-79
2022/08/22 11:16:47;;;;;;;30.17;18.38;;;;;;;31.09;25.37;100647.56;5035575;28;20312;-80
2022/08/22 11:19:41;;;;;;;30.15;16.92;;;;;;;31.09;25.12;100636.75;5034770;28;20053;-80
2022/08/22 11:22:38;;;;;;;25.13;15.10;;;;;;;31.16;24.77;100651.53;5036117;28;20057;-79
2022/08/22 11:25:15;;;;;;;23.17;15.70;;;;;;;31.01;25.09;100647.22;5035639;28;20057;-80
2022/08/22 11:28:15;;;;;;;25.55;15.65;;;;;;;30.83;25.51;100646.66;5035220;28;20136;-80
2022/08/22 11:31:15;;;;;;;26.85;15.00;;;;;;;30.87;25.53;100641.91;5035400;28;20064;-79
2022/08/22 11:34:29;;;;;;;25.35;16.00;;;;;;;31.01;25.74;100639.13;5027094;28;20483;-79
2022/08/22 11:37:11;;;;;;;23.10;12.95;;;;;;;31.09;24.87;100617.88;5035621;28;20107;-79
2022/08/22 11:39:45;;;;;;;20.42;11.45;;;;;;;31.18;24.97;100656.84;5035148;28;20060;-80
2022/08/22 11:42:30;;;;;;;21.63;13.75;;;;;;;31.15;24.71;100639.03;5035264;28;20152;-79
2022/08/22 11:45:00;;;;;;;20.38;13.90;;;;;;;31.26;24.80;100638.28;5034169;28;20053;-80
2022/08/22 11:47:44;;;;;;;26.50;14.57;;;;;;;31.41;24.85;100631.78;5035212;28;20053;-81
2022/08/22 11:50:33;;;;;;;20.63;10.77;;;;;;;31.28;24.69;100589.56;5034012;28;20056;-80
2022/08/22 11:53:15;;;;;;;16.25;8.75;;;;;;;31.35;24.52;100631.34;5035358;28;20112;-79
2022/08/22 11:56:08;;;;;;;16.40;7.90;;;;;;;31.24;24.55;100634.81;5033943;28;20585;-80
2022/08/22 11:59:11;;;;;;;15.68;7.28;;;;;;;31.09;25.06;100636.75;5034907;28;20575;-81
2022/08/22 12:02:00;;;;;;;15.27;7.63;;;;;;;31.14;24.89;100631.03;5034548;28;20057;-81
2022/08/22 12:04:37;;;;;;;17.95;7.40;;;;;;;31.23;24.68;100625.88;5035076;28;20049;-80
2022/08/22 12:07:17;;;;;;;10.98;5.72;;;;;;;31.08;25.15;100632.31;5035082;28;20104;-80
2022/08/22 12:10:03;;;;;;;16.00;6.07;;;;;;;31.05;24.81;100629.84;5035428;28;20107;-79
2022/08/22 12:12:51;;;;;;;10.32;4.10;;;;;;;31.09;24.67;100628.66;5034616;28;20045;-80
2022/08/22 12:15:21;;;;;;;10.95;4.28;;;;;;;30.92;24.72;100632.53;5034816;28;20083;-80